createdAt,value
2022-08-24T00:02:04.972Z,22.33
2022-08-24T00:04:48.659Z,21.47
2022-08-24T00:07:27.611Z,22.00
2022-08-24T00:09:57.174Z,24.07
2022-08-24T00:12:26.343Z,21.80
2022-08-24T00:14:54.959Z,23.70
2022-08-24T00:17:23.450Z,20.07
2022-08-24T00:19:53.760Z,23.23
2022-08-24T00:22:22.417Z,22.13
2022-08-24T00:24:50.269Z,19.77
2022-08-24T00:27:18.337Z,20.93
2022-08-24T00:29:46.889Z,22.37
2022-08-24T00:32:14.752Z,22.43
2022-08-24T00:34:45.878Z,21.67
2022-08-24T00:37:29.242Z,20.87
2022-08-24T00:40:00.085Z,21.57
2022-08-24T00:42:28.469Z,20.17
2022-08-24T00:44:56.355Z,22.97
2022-08-24T00:47:31.695Z,21.97
2022-08-24T00:50:06.929Z,22.03
2022-08-24T00:52:39.904Z,20.17
2022-08-24T00:55:13.745Z,22.93
2022-08-24T00:57:46.150Z,20.33
2022-08-24T01:00:19.486Z,19.47
2022-08-24T01:02:52.599Z,19.70
2022-08-24T01:05:20.819Z,18.97
2022-08-24T01:07:51.628Z,18.23
2022-08-24T01:10:22.840Z,18.10
2022-08-24T01:13:00.068Z,17.80
2022-08-24T01:15:29.635Z,18.13
2022-08-24T01:18:15.859Z,22.10
2022-08-24T01:21:04.089Z,19.83
2022-08-24T01:23:40.419Z,19.47
2022-08-24T01:26:11.437Z,19.23
2022-08-24T01:28:44.096Z,19.53
2022-08-24T01:31:12.805Z,20.43
2022-08-24T01:33:44.069Z,19.17
2022-08-24T01:36:19.582Z,22.53
2022-08-24T01:38:50.591Z,22.77
2022-08-24T01:41:18.722Z,22.57
2022-08-24T01:43:46.797Z,19.50
2022-08-24T01:46:14.893Z,19.67
2022-08-24T01:48:42.747Z,18.03
2022-08-24T01:51:10.785Z,21.97
2022-08-24T01:53:40.486Z,22.50
2022-08-24T01:56:09.881Z,19.07
2022-08-24T01:58:37.802Z,20.50
2022-08-24T02:01:06.846Z,21.43
2022-08-24T02:03:35.057Z,22.20
2022-08-24T02:06:03.270Z,20.40
2022-08-24T02:08:32.870Z,21.80
2022-08-24T02:11:00.787Z,20.10
2022-08-24T02:13:31.354Z,20.57
2022-08-24T02:15:59.710Z,20.23
2022-08-24T02:18:27.654Z,18.93
2022-08-24T02:21:09.344Z,20.03
2022-08-24T02:23:38.694Z,19.00
2022-08-24T02:26:08.551Z,20.97
2022-08-24T02:28:38.419Z,20.67
2022-08-24T02:31:11.195Z,21.70
2022-08-24T02:33:41.205Z,21.30
2022-08-24T02:36:26.082Z,20.47
2022-08-24T02:38:55.705Z,20.30
2022-08-24T02:41:24.893Z,21.83
2022-08-24T02:43:56.286Z,19.97
2022-08-24T02:46:27.219Z,21.43
2022-08-24T02:48:58.118Z,21.10
2022-08-24T02:51:45.662Z,24.40
2022-08-24T02:54:17.835Z,23.63
2022-08-24T02:56:46.367Z,25.57
2022-08-24T02:59:16.378Z,25.03
2022-08-24T03:01:45.242Z,24.43
2022-08-24T03:10:57.058Z,22.80
2022-08-24T03:13:45.435Z,21.37
2022-08-24T03:16:19.154Z,26.33
2022-08-24T03:19:34.713Z,24.17
2022-08-24T03:21:55.256Z,24.10
2022-08-24T03:24:23.775Z,25.20
2022-08-24T03:26:52.023Z,25.33
2022-08-24T03:29:19.886Z,24.90
2022-08-24T03:31:49.452Z,24.37
2022-08-24T03:34:19.880Z,26.07
2022-08-24T03:36:48.261Z,25.77
2022-08-24T03:39:17.226Z,23.30
2022-08-24T03:41:45.780Z,25.97
2022-08-24T03:44:23.079Z,24.53
2022-08-24T03:46:53.230Z,24.23
2022-08-24T03:49:21.818Z,25.20
2022-08-24T03:51:50.426Z,24.80
2022-08-24T03:54:23.930Z,23.70
2022-08-24T03:56:52.510Z,24.50
2022-08-24T03:59:21.272Z,23.10
2022-08-24T04:01:49.633Z,23.23
2022-08-24T04:04:19.053Z,23.97
2022-08-24T04:06:47.608Z,24.17
2022-08-24T04:09:16.648Z,25.73
2022-08-24T04:11:47.776Z,28.20
2022-08-24T04:14:26.769Z,24.47
2022-08-24T04:16:57.678Z,22.90
2022-08-24T04:19:28.928Z,25.70
2022-08-24T04:22:10.018Z,23.20
2022-08-24T04:24:39.992Z,23.73
2022-08-24T04:27:07.892Z,22.20
2022-08-24T04:29:36.219Z,21.67
2022-08-24T04:32:04.644Z,21.53
2022-08-24T04:34:33.969Z,20.83
2022-08-24T04:37:01.875Z,22.27
2022-08-24T04:39:29.904Z,24.07
2022-08-24T04:42:02.924Z,28.80
2022-08-24T04:44:31.573Z,25.30
2022-08-24T04:46:59.579Z,16.80
2022-08-24T04:49:27.539Z,15.53
2022-08-24T04:52:01.094Z,14.97
2022-08-24T04:54:29.977Z,17.90
2022-08-24T04:57:01.311Z,15.67
2022-08-24T04:59:29.226Z,16.00
2022-08-24T05:01:57.339Z,17.77
2022-08-24T05:04:25.483Z,19.90
2022-08-24T05:06:54.427Z,23.37
2022-08-24T05:09:24.277Z,26.63
2022-08-24T05:11:54.071Z,27.47
2022-08-24T05:14:25.604Z,28.97
2022-08-24T05:17:02.860Z,25.63
2022-08-24T05:19:42.886Z,31.17
2022-08-24T05:22:10.930Z,44.00
2022-08-24T05:24:40.203Z,43.53
2022-08-24T05:27:08.116Z,41.90
2022-08-24T05:29:37.405Z,42.77
2022-08-24T05:32:06.850Z,43.30
2022-08-24T05:34:34.767Z,45.75
2022-08-24T05:37:05.087Z,47.67
2022-08-24T05:39:33.206Z,54.83
2022-08-24T05:42:02.527Z,81.70
2022-08-24T05:44:31.702Z,91.32
2022-08-24T05:47:01.299Z,93.32
2022-08-24T05:49:29.925Z,82.40
2022-08-24T05:51:58.202Z,81.78
2022-08-24T05:54:26.954Z,84.03
2022-08-24T05:56:57.339Z,99.57
2022-08-24T05:59:26.903Z,110.38
2022-08-24T06:01:54.720Z,145.30
2022-08-24T06:04:22.687Z,148.60
2022-08-24T06:06:52.909Z,145.52
2022-08-24T06:09:21.137Z,150.50
2022-08-24T06:11:49.288Z,189.85
2022-08-24T06:14:21.904Z,154.23
2022-08-24T06:16:54.799Z,159.13
2022-08-24T06:19:27.671Z,173.90
2022-08-24T06:22:00.243Z,182.13
2022-08-24T06:24:42.980Z,184.60
2022-08-24T06:27:22.847Z,199.60
2022-08-24T06:29:53.160Z,219.93
2022-08-24T06:32:23.185Z,255.48
2022-08-24T06:34:51.561Z,253.93
2022-08-24T06:37:20.419Z,260.50
2022-08-24T06:39:48.808Z,258.88
2022-08-24T06:42:24.856Z,262.83
2022-08-24T06:44:54.315Z,260.85
2022-08-24T06:47:23.731Z,289.00
2022-08-24T06:49:51.868Z,256.48
2022-08-24T06:52:19.839Z,222.60
2022-08-24T06:54:47.645Z,206.20
2022-08-24T06:57:15.910Z,215.15
2022-08-24T06:59:50.886Z,229.75
2022-08-24T07:02:27.270Z,222.45
2022-08-24T07:05:00.061Z,231.27
2022-08-24T07:07:27.865Z,252.02
2022-08-24T07:09:55.892Z,220.07
2022-08-24T07:12:23.984Z,203.10
2022-08-24T07:14:51.979Z,191.55
2022-08-24T07:17:27.023Z,197.10
2022-08-24T07:19:55.044Z,197.50
2022-08-24T07:22:24.489Z,206.50
2022-08-24T07:24:52.261Z,193.00
2022-08-24T07:27:21.758Z,176.70
2022-08-24T07:30:04.625Z,165.10
2022-08-24T07:32:37.335Z,181.40
2022-08-24T07:35:05.909Z,195.43
2022-08-24T07:37:41.274Z,198.57
2022-08-24T07:40:09.970Z,199.88
2022-08-24T07:42:39.936Z,200.27
2022-08-24T07:45:09.312Z,200.65
2022-08-24T07:47:40.513Z,205.52
2022-08-24T07:50:10.619Z,191.90
2022-08-24T07:52:40.107Z,199.55
2022-08-24T07:55:12.098Z,193.65
2022-08-24T07:57:40.905Z,187.23
2022-08-24T08:00:12.572Z,191.68
2022-08-24T08:02:43.019Z,220.98
2022-08-24T08:05:11.727Z,233.57
2022-08-24T08:07:40.845Z,234.90
2022-08-24T08:10:11.273Z,233.30
2022-08-24T08:12:38.953Z,217.13
2022-08-24T08:15:09.692Z,226.50
2022-08-24T08:17:38.102Z,252.00
2022-08-24T08:20:08.798Z,235.93
2022-08-24T08:22:54.287Z,223.30
2022-08-24T08:25:23.410Z,204.02
2022-08-24T08:27:51.481Z,224.20
2022-08-24T08:30:20.444Z,246.90
2022-08-24T08:32:48.144Z,233.45
2022-08-24T08:35:16.007Z,231.23
2022-08-24T08:37:43.824Z,232.52
2022-08-24T08:40:37.941Z,227.23
2022-08-24T08:44:01.696Z,225.15
2022-08-24T08:46:48.150Z,228.73
2022-08-24T08:49:42.021Z,221.95
2022-08-24T08:52:27.336Z,224.07
2022-08-24T08:55:06.839Z,180.32
2022-08-24T08:58:11.427Z,187.27
2022-08-24T09:00:55.962Z,196.65
2022-08-24T09:03:45.908Z,206.57
2022-08-24T09:06:46.004Z,195.82
2022-08-24T09:09:46.376Z,219.70
2022-08-24T09:12:25.511Z,217.23
2022-08-24T09:15:16.725Z,239.05
2022-08-24T09:18:04.877Z,192.00
2022-08-24T09:21:09.333Z,182.70
2022-08-24T09:23:49.612Z,177.43
2022-08-24T09:26:27.263Z,185.73
2022-08-24T09:29:10.128Z,182.90
2022-08-24T09:31:52.211Z,172.80
2022-08-24T09:34:34.800Z,165.80
2022-08-24T09:37:19.316Z,146.40
2022-08-24T09:40:02.920Z,163.35
2022-08-24T09:43:05.465Z,174.50
2022-08-24T09:46:07.640Z,179.20
2022-08-24T09:48:57.218Z,179.90
2022-08-24T09:51:49.966Z,225.95
2022-08-24T09:55:05.792Z,215.90
2022-08-24T09:58:04.501Z,231.88
2022-08-24T10:00:40.024Z,219.93
2022-08-24T10:03:36.222Z,217.95
2022-08-24T10:06:18.485Z,193.85
2022-08-24T10:09:02.358Z,192.05
2022-08-24T10:11:48.022Z,210.00
2022-08-24T10:14:44.246Z,194.90
2022-08-24T10:17:22.840Z,177.32
2022-08-24T10:20:06.322Z,179.57
2022-08-24T10:22:58.410Z,170.52
2022-08-24T10:25:36.471Z,202.93
2022-08-24T10:28:29.776Z,216.48
2022-08-24T10:31:05.651Z,217.65
2022-08-24T10:33:45.845Z,235.10
2022-08-24T10:36:27.883Z,240.25
2022-08-24T10:39:28.275Z,257.38
2022-08-24T10:42:58.714Z,285.73
2022-08-24T10:46:03.335Z,292.75
2022-08-24T10:48:58.600Z,254.93
2022-08-24T10:51:42.452Z,222.82
2022-08-24T10:54:13.274Z,200.65
2022-08-24T10:56:44.007Z,196.70
2022-08-24T10:59:23.901Z,187.45
2022-08-24T11:02:12.412Z,176.73
2022-08-24T11:04:41.608Z,181.93
2022-08-24T11:07:17.544Z,182.95
2022-08-24T11:09:48.868Z,167.43
2022-08-24T11:12:30.063Z,165.52
2022-08-24T11:15:01.106Z,176.68
2022-08-24T11:17:33.174Z,157.93
2022-08-24T11:20:01.293Z,180.23
2022-08-24T11:22:34.227Z,188.70
2022-08-24T11:25:08.785Z,190.00
2022-08-24T11:27:40.077Z,177.85
2022-08-24T11:30:13.912Z,174.40
2022-08-24T11:33:13.806Z,174.27
2022-08-24T11:35:41.888Z,212.90
2022-08-24T11:38:17.652Z,246.38
2022-08-24T11:40:58.386Z,235.95
2022-08-24T11:43:50.948Z,217.05
2022-08-24T11:46:29.887Z,186.88
2022-08-24T11:49:05.996Z,157.25
2022-08-24T11:51:44.108Z,147.57
2022-08-24T11:54:24.736Z,135.40
2022-08-24T11:57:08.405Z,149.82
2022-08-24T11:59:45.498Z,153.50
2022-08-24T12:02:19.816Z,153.10
2022-08-24T12:04:55.988Z,146.32
2022-08-24T12:07:36.464Z,146.32
2022-08-24T12:10:17.782Z,147.70
2022-08-24T12:12:53.166Z,146.30
2022-08-24T12:15:28.809Z,158.95
2022-08-24T12:18:05.136Z,156.05
2022-08-24T12:20:38.493Z,155.07
2022-08-24T12:23:12.993Z,150.23
2022-08-24T12:25:58.696Z,140.85
2022-08-24T12:28:32.065Z,146.38
2022-08-24T12:31:07.907Z,142.52
2022-08-24T12:33:39.465Z,147.10
2022-08-24T12:36:19.368Z,152.50
2022-08-24T12:38:52.043Z,141.85
2022-08-24T12:41:25.552Z,131.07
2022-08-24T12:43:56.904Z,132.63
2022-08-24T12:46:30.395Z,133.70
2022-08-24T12:49:03.834Z,137.52
2022-08-24T12:51:49.892Z,137.43
2022-08-24T12:54:36.857Z,134.55
2022-08-24T12:57:16.674Z,138.90
2022-08-24T12:59:49.528Z,131.18
2022-08-24T13:02:35.098Z,151.65
2022-08-24T13:05:15.301Z,138.23
2022-08-24T13:07:48.763Z,132.15
2022-08-24T13:10:39.056Z,132.48
2022-08-24T13:13:15.971Z,124.40
2022-08-24T13:16:02.964Z,122.07
2022-08-24T13:18:54.130Z,122.78
2022-08-24T13:21:42.942Z,117.03
2022-08-24T13:24:51.408Z,121.75
2022-08-24T13:28:05.062Z,130.98
2022-08-24T13:31:14.204Z,134.18
2022-08-24T13:33:46.590Z,168.20
2022-08-24T13:36:56.437Z,137.85
2022-08-24T13:39:42.433Z,126.15
2022-08-24T13:42:24.826Z,124.13
2022-08-24T13:45:21.745Z,118.20
2022-08-24T13:48:14.572Z,115.95
2022-08-24T13:51:02.588Z,116.93
2022-08-24T13:53:53.585Z,115.68
2022-08-24T13:56:44.685Z,116.13
2022-08-24T13:59:18.446Z,116.22
2022-08-24T14:02:04.011Z,123.07
2022-08-24T14:04:44.767Z,121.03
2022-08-24T14:07:21.460Z,121.70
2022-08-24T14:10:10.204Z,128.93
2022-08-24T14:13:01.562Z,123.60
2022-08-24T14:15:47.780Z,134.32
2022-08-24T14:18:29.559Z,123.15
2022-08-24T14:21:10.032Z,131.25
2022-08-24T14:23:59.336Z,121.95
2022-08-24T14:27:08.265Z,132.23
2022-08-24T14:29:42.195Z,126.53
2022-08-24T14:32:41.537Z,126.13
2022-08-24T14:35:32.095Z,128.95
2022-08-24T14:38:12.701Z,121.57
2022-08-24T14:40:56.668Z,126.90
2022-08-24T14:43:31.918Z,123.50
2022-08-24T14:46:09.777Z,120.47
2022-08-24T14:48:46.529Z,124.65
2022-08-24T14:51:31.946Z,126.35
2022-08-24T14:54:04.038Z,126.35
2022-08-24T14:56:51.927Z,124.85
2022-08-24T14:59:34.557Z,127.32
2022-08-24T15:02:37.404Z,121.97
2022-08-24T15:05:17.961Z,130.10
2022-08-24T15:07:55.502Z,120.65
2022-08-24T15:10:26.798Z,129.43
2022-08-24T15:13:07.432Z,134.70
2022-08-24T15:15:39.637Z,128.98
2022-08-24T15:18:24.758Z,129.63
2022-08-24T15:21:07.658Z,139.70
2022-08-24T15:24:08.025Z,132.35
2022-08-24T15:26:56.549Z,122.60
2022-08-24T15:29:30.746Z,135.82
2022-08-24T15:32:03.860Z,131.35
2022-08-24T15:34:39.405Z,130.68
2022-08-24T15:37:08.257Z,148.68
2022-08-24T15:39:36.175Z,162.55
2022-08-24T15:42:11.832Z,140.80
2022-08-24T15:44:43.649Z,140.85
2022-08-24T15:47:20.811Z,143.13
2022-08-24T15:49:53.228Z,135.98
2022-08-24T15:52:49.711Z,131.73
2022-08-24T15:55:33.555Z,129.10
2022-08-24T15:58:16.999Z,126.88
2022-08-24T16:01:04.564Z,115.80
2022-08-24T16:03:47.777Z,132.15
2022-08-24T16:06:26.629Z,110.72
2022-08-24T16:09:04.058Z,113.65
2022-08-24T16:11:38.443Z,119.25
2022-08-24T16:14:15.235Z,120.45
2022-08-24T16:16:47.116Z,118.35
2022-08-24T16:19:27.112Z,122.50
2022-08-24T16:22:01.107Z,108.38
2022-08-24T16:24:33.066Z,106.97
2022-08-24T16:27:05.060Z,103.57
2022-08-24T16:29:53.299Z,108.43
2022-08-24T16:32:29.947Z,97.97
2022-08-24T16:35:18.278Z,97.78
2022-08-24T16:37:46.771Z,96.60
2022-08-24T16:40:16.891Z,100.07
2022-08-24T16:42:46.168Z,96.95
2022-08-24T16:45:18.478Z,92.32
2022-08-24T16:47:48.738Z,110.65
2022-08-24T16:50:19.531Z,103.45
2022-08-24T16:52:47.774Z,105.43
2022-08-24T16:55:18.197Z,101.15
2022-08-24T16:57:50.403Z,99.32
2022-08-24T17:00:22.144Z,98.53
2022-08-24T17:02:51.398Z,99.82
2022-08-24T17:05:20.488Z,95.13
2022-08-24T17:07:48.870Z,99.05
2022-08-24T17:10:20.099Z,97.60
2022-08-24T17:12:50.012Z,100.90
2022-08-24T17:15:21.718Z,94.60
2022-08-24T17:17:57.602Z,94.40
2022-08-24T17:20:25.984Z,93.18
2022-08-24T17:22:53.833Z,87.82
2022-08-24T17:25:21.725Z,89.85
2022-08-24T17:27:49.796Z,90.32
2022-08-24T17:30:21.076Z,90.13
2022-08-24T17:32:48.885Z,80.07
2022-08-24T17:35:18.529Z,76.15
2022-08-24T17:37:46.710Z,79.35
2022-08-24T17:40:16.647Z,77.93
2022-08-24T17:42:51.161Z,74.68
2022-08-24T17:45:20.465Z,75.40
2022-08-24T17:47:48.392Z,76.90
2022-08-24T17:50:19.875Z,74.10
2022-08-24T17:52:48.651Z,75.25
2022-08-24T17:55:24.986Z,73.93
2022-08-24T17:57:53.228Z,72.47
2022-08-24T18:00:20.971Z,76.07
2022-08-24T18:02:48.740Z,73.03
2022-08-24T18:05:18.444Z,77.63
2022-08-24T18:07:54.170Z,78.18
2022-08-24T18:10:24.941Z,84.78
2022-08-24T18:12:53.232Z,91.55
2022-08-24T18:15:21.596Z,96.90
2022-08-24T18:17:59.507Z,97.10
2022-08-24T18:20:34.007Z,102.90
2022-08-24T18:23:01.851Z,99.32
2022-08-24T18:25:30.952Z,92.53
2022-08-24T18:27:59.575Z,90.82
2022-08-24T18:30:30.770Z,81.32
2022-08-24T18:32:59.698Z,77.75
2022-08-24T18:35:30.744Z,72.78
2022-08-24T18:37:58.575Z,69.45
2022-08-24T18:40:33.089Z,67.95
2022-08-24T18:43:04.029Z,63.90
2022-08-24T18:45:34.223Z,69.60
2022-08-24T18:48:02.245Z,61.60
2022-08-24T18:50:32.835Z,59.78
2022-08-24T18:53:01.422Z,68.88
2022-08-24T18:55:29.471Z,67.57
2022-08-24T18:57:58.130Z,63.60
2022-08-24T19:00:26.242Z,70.30
2022-08-24T19:02:54.509Z,69.63
2022-08-24T19:05:24.901Z,77.63
2022-08-24T19:07:54.918Z,74.45
2022-08-24T19:10:25.405Z,78.88
2022-08-24T19:12:57.594Z,75.03
2022-08-24T19:15:32.303Z,76.13
2022-08-24T19:18:09.790Z,70.30
2022-08-24T19:20:40.763Z,69.22
2022-08-24T19:23:14.835Z,66.35
2022-08-24T19:25:45.865Z,63.00
2022-08-24T19:28:14.194Z,65.80
2022-08-24T19:30:44.561Z,65.07
2022-08-24T19:33:14.452Z,61.75
2022-08-24T20:07:04.910Z,41.73
2022-08-24T20:09:37.022Z,38.17
2022-08-24T20:12:05.989Z,38.93
2022-08-24T20:14:37.317Z,41.97
2022-08-24T20:17:07.142Z,40.67
2022-08-24T20:19:39.843Z,38.40
2022-08-24T20:22:13.483Z,36.80
2022-08-24T20:24:43.146Z,35.93
2022-08-24T20:27:13.266Z,33.70
2022-08-24T20:29:41.605Z,32.70
2022-08-24T20:32:10.433Z,30.37
2022-08-24T20:34:40.983Z,29.93
2022-08-24T20:37:12.127Z,31.03
2022-08-24T20:39:40.014Z,29.03
2022-08-24T20:42:13.934Z,26.13
2022-08-24T20:44:44.825Z,26.03
2022-08-24T20:47:14.607Z,25.90
2022-08-24T20:49:42.970Z,24.00
2022-08-24T20:52:21.248Z,23.33
2022-08-24T20:54:54.653Z,23.10
2022-08-24T20:57:23.525Z,22.77
2022-08-24T20:59:51.908Z,22.67
2022-08-24T21:02:20.023Z,21.67
2022-08-24T21:04:48.441Z,20.93
2022-08-24T21:07:17.639Z,21.20
2022-08-24T21:09:47.814Z,20.03
2022-08-24T21:12:16.504Z,21.53
2022-08-24T21:14:44.823Z,23.60
2022-08-24T21:17:12.828Z,22.13
2022-08-24T21:19:41.331Z,21.40
2022-08-24T21:22:24.147Z,22.50
2022-08-24T21:25:37.365Z,20.60
2022-08-24T21:28:27.268Z,22.23
2022-08-24T21:31:09.039Z,20.77
2022-08-24T21:33:57.003Z,22.63
2022-08-24T21:36:31.818Z,27.40
2022-08-24T21:39:00.438Z,30.30
2022-08-24T21:41:30.210Z,28.73
2022-08-24T21:44:00.232Z,29.13
2022-08-24T21:46:32.936Z,31.03
2022-08-24T21:49:01.114Z,27.67
2022-08-24T21:51:30.111Z,28.87
2022-08-24T21:53:59.743Z,29.23
2022-08-24T21:56:33.371Z,28.33
2022-08-24T21:59:02.882Z,28.87
2022-08-24T22:01:31.421Z,27.40
2022-08-24T22:04:00.818Z,26.67
2022-08-24T22:06:31.751Z,27.50
2022-08-24T22:09:01.004Z,28.50
2022-08-24T22:11:54.546Z,25.90
2022-08-24T22:14:25.967Z,28.70
2022-08-24T22:16:55.147Z,29.17
2022-08-24T22:19:26.423Z,27.87
2022-08-24T22:21:54.303Z,27.57
2022-08-24T22:24:23.122Z,29.37
2022-08-24T22:26:52.941Z,27.47
2022-08-24T22:29:22.715Z,26.77
2022-08-24T22:31:52.792Z,26.07
2022-08-24T22:34:21.531Z,27.77
2022-08-24T22:36:50.229Z,27.40
2022-08-24T22:39:21.834Z,28.00
2022-08-24T22:41:49.796Z,26.27
2022-08-24T22:44:22.243Z,26.10
2022-08-24T22:46:52.536Z,28.20
2022-08-24T22:49:23.351Z,25.67
2022-08-24T22:51:51.562Z,27.90
2022-08-24T22:54:20.852Z,28.50
2022-08-24T22:56:52.312Z,26.80
2022-08-24T22:59:24.427Z,25.70
2022-08-24T23:02:01.346Z,28.77
2022-08-24T23:04:32.217Z,27.93
2022-08-24T23:07:06.564Z,28.37
2022-08-24T23:09:44.015Z,26.87
2022-08-24T23:12:15.484Z,28.77
2022-08-24T23:14:45.219Z,28.13
2022-08-24T23:17:13.515Z,27.17
2022-08-24T23:19:58.806Z,26.87
2022-08-24T23:22:26.871Z,26.60
2022-08-24T23:24:54.992Z,26.83
2022-08-24T23:27:23.130Z,26.97
2022-08-24T23:29:52.893Z,25.83
2022-08-24T23:32:20.969Z,24.57
2022-08-24T23:34:49.773Z,24.87
2022-08-24T23:37:18.963Z,23.67
2022-08-24T23:39:48.881Z,22.63
2022-08-24T23:42:16.929Z,21.23
2022-08-24T23:44:44.951Z,22.90
2022-08-24T23:47:14.888Z,22.20
2022-08-24T23:49:49.423Z,21.70
2022-08-24T23:52:28.223Z,20.53
2022-08-24T23:55:20.054Z,21.60
2022-08-24T23:57:44.837Z,22.30
